Time;durP1;ratioP1;P1;durP2;ratioP2;P2;SDS_P1;SDS_P2;PMS_P1;PMS_P2;Temp;Humidity;BMP_temperature;BMP_pressure;BME280_temperature;BME280_humidity;BME280_pressure;Samples;Min_cycle;Max_cycle;Signal;HPM_P1;HPM_P2
2021/08/16 00:00:12;;;;;;;8.82;3.78;;;21.10;97.30;;;;;;5032728;28;20037;-70
2021/08/16 00:02:38;;;;;;;10.52;4.65;;;21.20;97.20;;;;;;5032616;28;20037;-71
2021/08/16 00:05:04;;;;;;;10.95;4.28;;;21.30;97.30;;;;;;5032807;28;20040;-71
2021/08/16 00:07:30;;;;;;;9.50;4.15;;;21.20;97.40;;;;;;5032597;28;20029;-70
2021/08/16 00:09:56;;;;;;;9.48;3.92;;;21.20;97.20;;;;;;5033015;28;20032;-70
2021/08/16 00:12:21;;;;;;;8.52;3.85;;;21.10;97.20;;;;;;5032775;28;20029;-70
2021/08/16 00:14:47;;;;;;;6.10;3.83;;;21.10;96.70;;;;;;5032388;28;20033;-70
2021/08/16 00:17:13;;;;;;;7.80;4.15;;;21.00;96.70;;;;;;5032403;28;20037;-70
2021/08/16 00:19:41;;;;;;;8.98;4.43;;;20.80;96.80;;;;;;5031390;28;20017;-70
2021/08/16 00:22:07;;;;;;;9.05;4.25;;;20.80;96.90;;;;;;5032863;28;20451;-70
2021/08/16 00:24:32;;;;;;;5.85;3.55;;;20.80;96.90;;;;;;5032097;28;20041;-69
2021/08/16 00:26:59;;;;;;;11.85;4.90;;;20.70;97.00;;;;;;5032339;28;20099;-70
2021/08/16 00:29:25;;;;;;;7.57;4.13;;;20.70;97.20;;;;;;5032246;28;20034;-70
2021/08/16 00:31:52;;;;;;;9.90;3.97;;;20.70;97.10;;;;;;5030970;28;20116;-70
2021/08/16 00:34:17;;;;;;;8.82;3.97;;;20.70;97.30;;;;;;5032773;28;20022;-70
2021/08/16 00:36:44;;;;;;;7.40;4.03;;;20.70;97.60;;;;;;5032312;28;20038;-70
2021/08/16 00:39:09;;;;;;;11.23;4.65;;;20.60;97.60;;;;;;5031240;28;20068;-70
2021/08/16 00:41:37;;;;;;;7.22;4.05;;;20.60;97.90;;;;;;5031868;28;20061;-70
2021/08/16 00:44:07;;;;;;;10.32;3.97;;;20.60;98.10;;;;;;5032068;28;20037;-71
2021/08/16 00:46:34;;;;;;;8.40;4.50;;;20.60;98.00;;;;;;5031733;28;20364;-71
2021/08/16 00:48:59;;;;;;;7.95;4.35;;;20.60;97.60;;;;;;5032101;28;20013;-70
2021/08/16 00:51:27;;;;;;;9.95;4.78;;;20.70;97.80;;;;;;5030695;28;20074;-70
2021/08/16 00:53:53;;;;;;;8.65;4.32;;;20.60;98.20;;;;;;5031969;28;20090;-70
2021/08/16 00:56:19;;;;;;;11.25;4.82;;;20.60;97.90;;;;;;5031959;28;20616;-71
2021/08/16 00:58:45;;;;;;;7.90;4.05;;;20.60;97.70;;;;;;5031622;28;20028;-71
2021/08/16 01:01:11;;;;;;;11.68;4.63;;;20.60;97.80;;;;;;5031887;28;20025;-69
2021/08/16 01:03:36;;;;;;;8.90;4.30;;;20.60;97.90;;;;;;5031045;28;20029;-69
2021/08/16 01:06:02;;;;;;;8.23;4.05;;;20.50;98.00;;;;;;5030410;28;20030;-71
2021/08/16 01:08:27;;;;;;;9.98;4.78;;;20.40;97.70;;;;;;5031355;28;20026;-70
2021/08/16 01:10:54;;;;;;;14.05;4.72;;;20.40;97.50;;;;;;5031444;28;20447;-69
2021/08/16 01:13:21;;;;;;;11.35;4.78;;;20.50;97.30;;;;;;5031659;28;20021;-70
2021/08/16 01:15:54;;;;;;;6.32;3.47;;;20.50;97.70;;;;;;5031335;28;20033;-70
2021/08/16 01:18:19;;;;;;;7.65;4.13;;;20.60;97.40;;;;;;5031190;28;20040;-69
2021/08/16 01:20:45;;;;;;;8.32;4.05;;;20.60;97.30;;;;;;5030046;28;20352;-69
2021/08/16 01:23:12;;;;;;;9.02;3.97;;;20.50;97.50;;;;;;5031077;28;20129;-70
2021/08/16 01:25:37;;;;;;;7.22;3.95;;;20.50;97.60;;;;;;5031165;28;20029;-70
2021/08/16 01:28:03;;;;;;;9.50;4.18;;;20.50;97.80;;;;;;5031524;28;20036;-70
2021/08/16 01:30:29;;;;;;;9.25;4.03;;;20.50;97.60;;;;;;5031058;28;20041;-70
2021/08/16 01:32:54;;;;;;;8.43;4.20;;;20.50;98.00;;;;;;5031016;28;20112;-70
2021/08/16 01:35:21;;;;;;;9.55;4.80;;;20.50;98.20;;;;;;5029783;28;20049;-70
2021/08/16 01:37:47;;;;;;;13.93;5.07;;;20.50;98.10;;;;;;5031012;28;20043;-69
2021/08/16 01:40:15;;;;;;;8.70;4.25;;;20.50;98.30;;;;;;5031335;28;20105;-70
2021/08/16 01:42:41;;;;;;;12.55;5.32;;;20.50;98.10;;;;;;5030959;28;20464;-70
2021/08/16 01:45:08;;;;;;;11.85;4.30;;;20.40;98.00;;;;;;5030914;28;20044;-70
2021/08/16 01:47:33;;;;;;;8.05;4.35;;;20.20;98.20;;;;;;5030632;28;20033;-70
2021/08/16 01:49:59;;;;;;;10.60;4.60;;;20.30;98.20;;;;;;5030583;28;20091;-70
2021/08/16 01:52:24;;;;;;;10.52;4.72;;;20.30;98.00;;;;;;5031225;28;20083;-70
2021/08/16 01:54:50;;;;;;;8.10;4.50;;;20.20;98.10;;;;;;5029658;28;20030;-70
2021/08/16 01:57:16;;;;;;;8.93;4.40;;;20.30;97.90;;;;;;5030629;28;20060;-69
2021/08/16 01:59:41;;;;;;;10.75;4.22;;;20.30;98.00;;;;;;5030884;28;20422;-68
2021/08/16 02:02:07;;;;;;;11.52;4.72;;;20.40;97.70;;;;;;5030420;28;20536;-70
2021/08/16 02:04:33;;;;;;;9.90;4.55;;;20.40;97.70;;;;;;5030500;28;20036;-70
2021/08/16 02:06:58;;;;;;;10.65;4.30;;;20.40;98.00;;;;;;5031197;28;20017;-69
2021/08/16 02:09:24;;;;;;;10.25;4.40;;;20.30;97.70;;;;;;5030753;28;20040;-70
2021/08/16 02:11:50;;;;;;;10.48;4.53;;;20.40;97.80;;;;;;5030703;28;20356;-70
2021/08/16 02:14:16;;;;;;;8.38;4.40;;;20.40;97.80;;;;;;5030520;28;20102;-70
2021/08/16 02:16:42;;;;;;;10.70;4.25;;;20.40;97.80;;;;;;5034176;28;20041;-70
2021/08/16 02:19:08;;;;;;;8.48;4.57;;;20.30;97.80;;;;;;5035035;28;20111;-70
2021/08/16 02:21:33;;;;;;;10.32;4.72;;;20.30;97.70;;;;;;5034769;28;20029;-71
2021/08/16 02:23:59;;;;;;;9.88;4.78;;;20.30;98.00;;;;;;5034284;28;20037;-70
2021/08/16 02:26:24;;;;;;;9.65;4.57;;;20.30;97.80;;;;;;5034560;28;20359;-70
2021/08/16 02:28:50;;;;;;;5.88;3.92;;;20.10;98.00;;;;;;5034355;28;20140;-70
2021/08/16 02:31:20;;;;;;;9.73;5.32;;;20.10;97.70;;;;;;5034723;28;20034;-70
2021/08/16 02:33:47;;;;;;;10.85;4.32;;;20.20;97.70;;;;;;5034352;28;20455;-70
2021/08/16 02:36:13;;;;;;;9.20;4.40;;;20.20;97.70;;;;;;5034510;28;20095;-70
2021/08/16 02:38:38;;;;;;;14.05;4.13;;;20.20;97.80;;;;;;5034467;28;20490;-70
2021/08/16 02:41:04;;;;;;;13.68;3.90;;;20.30;97.70;;;;;;5034296;28;20033;-70
2021/08/16 02:43:29;;;;;;;7.68;4.32;;;20.20;97.80;;;;;;5034164;28;20075;-70
2021/08/16 02:45:55;;;;;;;11.90;4.10;;;20.20;97.60;;;;;;5034649;28;20087;-70
2021/08/16 02:48:20;;;;;;;8.75;3.67;;;20.20;97.40;;;;;;5034140;28;20583;-70
2021/08/16 02:50:46;;;;;;;12.13;4.45;;;20.20;97.70;;;;;;5034029;28;20449;-69
2021/08/16 02:53:12;;;;;;;10.45;3.78;;;20.10;97.20;;;;;;5034105;28;20348;-70
2021/08/16 02:55:37;;;;;;;11.63;4.07;;;20.10;97.20;;;;;;5033993;28;20348;-70
2021/08/16 02:58:03;;;;;;;6.47;4.10;;;20.10;97.10;;;;;;5034342;28;20034;-70
2021/08/16 03:00:29;;;;;;;10.88;4.60;;;20.10;97.10;;;;;;5032806;28;20044;-69
2021/08/16 03:02:54;;;;;;;13.10;4.47;;;20.00;97.10;;;;;;5033945;28;20128;-69
2021/08/16 03:05:20;;;;;;;7.97;4.28;;;19.90;97.00;;;;;;5032765;28;20037;-69
2021/08/16 03:07:45;;;;;;;10.18;4.53;;;20.00;96.90;;;;;;5033563;28;20037;-68
2021/08/16 03:10:12;;;;;;;10.35;4.70;;;20.00;96.80;;;;;;5034105;28;20061;-71
2021/08/16 03:12:38;;;;;;;13.27;4.72;;;19.90;96.80;;;;;;5033525;28;20460;-71
2021/08/16 03:15:05;;;;;;;11.00;4.35;;;19.90;96.80;;;;;;5032391;28;20076;-70
2021/08/16 03:17:30;;;;;;;9.50;5.30;;;19.90;97.10;;;;;;5033485;28;20025;-69
2021/08/16 03:19:56;;;;;;;10.40;5.40;;;19.90;96.70;;;;;;5033468;28;20091;-69
2021/08/16 03:22:21;;;;;;;11.65;4.70;;;19.90;96.90;;;;;;5033855;28;20036;-69
2021/08/16 03:24:47;;;;;;;8.82;4.85;;;19.80;96.70;;;;;;5033323;28;20045;-69
2021/08/16 03:27:12;;;;;;;12.63;5.10;;;19.70;96.80;;;;;;5032996;28;20466;-69
2021/08/16 03:29:38;;;;;;;13.05;4.70;;;19.70;96.90;;;;;;5033464;28;20022;-69
2021/08/16 03:32:04;;;;;;;12.55;4.47;;;19.80;97.00;;;;;;5032306;28;20030;-69
2021/08/16 03:34:30;;;;;;;10.63;4.25;;;19.70;96.50;;;;;;5033171;28;20061;-69
2021/08/16 03:36:56;;;;;;;8.50;3.67;;;19.60;96.70;;;;;;5033733;28;20071;-69
2021/08/16 03:39:22;;;;;;;7.90;4.00;;;19.60;96.40;;;;;;5032290;28;20406;-69
2021/08/16 03:41:47;;;;;;;12.68;3.60;;;19.50;96.20;;;;;;5032996;28;20617;-69
2021/08/16 03:44:13;;;;;;;11.63;3.80;;;19.40;96.00;;;;;;5033187;28;20482;-69
2021/08/16 03:46:39;;;;;;;6.78;3.47;;;19.40;96.00;;;;;;5033321;28;20022;-68
2021/08/16 03:49:04;;;;;;;10.10;3.80;;;19.40;95.80;;;;;;5033403;28;20468;-69
2021/08/16 03:51:30;;;;;;;12.55;3.88;;;19.30;95.60;;;;;;5032824;28;20580;-71
2021/08/16 03:53:56;;;;;;;7.47;3.10;;;19.30;95.40;;;;;;5033004;28;20037;-68
2021/08/16 03:56:21;;;;;;;6.97;3.20;;;19.10;95.20;;;;;;5031784;28;20041;-70
2021/08/16 03:58:47;;;;;;;8.93;3.15;;;19.10;95.10;;;;;;5032669;28;20041;-69
2021/08/16 04:01:12;;;;;;;6.93;3.05;;;19.10;95.20;;;;;;5032844;28;20537;-71
2021/08/16 04:03:41;;;;;;;9.02;3.33;;;19.10;95.00;;;;;;5032695;28;20455;-69
2021/08/16 04:06:06;;;;;;;;;;;19.10;94.90;;;;;;5033017;28;20038;-69
2021/08/16 04:08:33;;;;;;;6.20;2.90;;;19.10;94.80;;;;;;5032680;28;20012;-69
2021/08/16 04:10:59;;;;;;;8.05;3.38;;;18.90;94.80;;;;;;5032457;28;20030;-69
2021/08/16 04:13:25;;;;;;;7.28;3.15;;;18.90;94.80;;;;;;5032862;28;20097;-68
2021/08/16 04:15:50;;;;;;;7.60;3.22;;;18.90;94.80;;;;;;5032587;28;20503;-68
2021/08/16 04:18:16;;;;;;;8.93;4.07;;;18.90;94.80;;;;;;5032426;28;20041;-69
2021/08/16 04:20:41;;;;;;;5.43;2.70;;;18.80;94.80;;;;;;5032487;28;20041;-69
2021/08/16 04:23:08;;;;;;;8.80;3.08;;;18.90;94.80;;;;;;5032075;28;20053;-69
2021/08/16 04:25:34;;;;;;;7.03;2.75;;;18.80;94.70;;;;;;5032273;28;20108;-68
2021/08/16 04:27:59;;;;;;;5.95;3.28;;;18.90;94.70;;;;;;5032731;28;20410;-69
2021/08/16 04:30:25;;;;;;;8.55;3.45;;;18.80;94.90;;;;;;5032149;28;20563;-69
2021/08/16 04:32:51;;;;;;;8.95;3.30;;;18.70;95.00;;;;;;5032244;28;20025;-69
2021/08/16 04:35:16;;;;;;;6.32;3.58;;;18.80;95.00;;;;;;5032003;28;20065;-69
2021/08/16 04:37:42;;;;;;;7.28;3.85;;;18.80;95.00;;;;;;5031339;28;20029;-70
2021/08/16 04:40:09;;;;;;;6.75;3.90;;;18.70;95.00;;;;;;5031147;28;20026;-69
2021/08/16 04:42:35;;;;;;;7.30;4.10;;;18.70;95.10;;;;;;5032174;28;20128;-70
2021/08/16 04:45:01;;;;;;;7.97;3.83;;;18.60;95.30;;;;;;5031749;28;20502;-69
2021/08/16 04:47:26;;;;;;;6.90;3.53;;;18.60;95.30;;;;;;5031767;28;20042;-68
2021/08/16 04:49:54;;;;;;;8.43;4.25;;;18.80;95.20;;;;;;5031936;28;20352;-69
2021/08/16 04:52:20;;;;;;;;;;;18.70;95.30;;;;;;5032510;28;20466;-69
2021/08/16 04:54:46;;;;;;;8.55;4.07;;;18.70;95.20;;;;;;5030681;28;20060;-69
2021/08/16 04:57:11;;;;;;;7.88;3.97;;;18.70;95.40;;;;;;5031748;28;20033;-70
2021/08/16 04:59:37;;;;;;;8.02;4.40;;;18.70;95.30;;;;;;5031401;28;20041;-70
2021/08/16 05:02:02;;;;;;;9.88;4.60;;;18.60;95.40;;;;;;5031564;28;20037;-69
2021/08/16 05:04:28;;;;;;;9.38;4.13;;;18.60;95.30;;;;;;5047164;28;20025;-70
2021/08/16 05:06:53;;;;;;;13.57;4.70;;;18.60;95.30;;;;;;5032000;28;20052;-69
2021/08/16 05:09:19;;;;;;;13.45;5.10;;;18.60;95.40;;;;;;5031449;28;20213;-70
2021/08/16 05:11:45;;;;;;;11.35;4.65;;;18.50;95.50;;;;;;5031622;28;20025;-70
2021/08/16 05:14:10;;;;;;;10.63;4.50;;;18.60;95.40;;;;;;5031320;28;20033;-70
2021/08/16 05:16:36;;;;;;;10.48;4.90;;;18.60;95.50;;;;;;5031134;28;20722;-69
2021/08/16 05:19:02;;;;;;;12.48;5.53;;;18.50;95.40;;;;;;5031618;28;20414;-69
2021/08/16 05:21:30;;;;;;;15.52;5.50;;;18.40;95.70;;;;;;5031117;28;20117;-68
2021/08/16 05:23:55;;;;;;;14.48;5.15;;;18.50;95.60;;;;;;5031103;28;20120;-69
2021/08/16 05:26:21;;;;;;;12.40;5.05;;;18.40;95.80;;;;;;5031041;28;20555;-69
2021/08/16 05:28:46;;;;;;;12.75;5.15;;;18.50;95.50;;;;;;5031120;28;20089;-69
2021/08/16 05:31:12;;;;;;;12.32;5.05;;;18.60;95.40;;;;;;5031477;28;20025;-69
2021/08/16 05:33:37;;;;;;;11.40;4.80;;;18.60;95.40;;;;;;5031147;28;20026;-70
2021/08/16 05:36:03;;;;;;;11.30;4.63;;;18.60;95.20;;;;;;5030918;28;20045;-71
2021/08/16 05:38:29;;;;;;;12.93;4.97;;;18.70;95.20;;;;;;5030928;28;20091;-70
2021/08/16 05:40:54;;;;;;;13.88;4.38;;;18.70;95.20;;;;;;5030890;28;20091;-71
2021/08/16 05:43:20;;;;;;;8.77;4.63;;;18.70;95.10;;;;;;5046770;28;20025;-71
2021/08/16 05:45:46;;;;;;;11.27;5.07;;;18.80;95.10;;;;;;5031135;28;20142;-72
2021/08/16 05:48:11;;;;;;;19.05;8.18;;;18.70;95.10;;;;;;5046505;28;20033;-72
2021/08/16 05:50:38;;;;;;;17.27;5.15;;;18.80;95.10;;;;;;5030688;28;20033;-71
2021/08/16 05:53:04;;;;;;;13.02;4.15;;;18.80;95.10;;;;;;5030625;28;20030;-72
2021/08/16 05:55:29;;;;;;;17.08;5.10;;;18.80;95.00;;;;;;5030024;28;20013;-70
2021/08/16 05:57:55;;;;;;;13.05;5.35;;;18.90;95.00;;;;;;5029873;28;20079;-71
2021/08/16 06:00:20;;;;;;;13.50;5.15;;;18.90;95.00;;;;;;5030820;28;20049;-71
2021/08/16 06:02:46;;;;;;;13.43;4.07;;;18.80;95.30;;;;;;5030261;28;20478;-70
2021/08/16 06:05:12;;;;;;;13.90;4.82;;;18.90;95.20;;;;;;5030309;28;20041;-71
2021/08/16 06:07:37;;;;;;;13.32;4.88;;;18.90;95.10;;;;;;5030652;28;20029;-70
2021/08/16 06:10:07;;;;;;;16.00;5.50;;;19.00;95.10;;;;;;5030919;28;20097;-70
2021/08/16 06:12:33;;;;;;;12.45;6.00;;;18.90;95.10;;;;;;5030384;28;20098;-73
2021/08/16 06:14:58;;;;;;;14.68;6.75;;;19.00;95.20;;;;;;5029090;28;20025;-72
2021/08/16 06:17:24;;;;;;;17.17;6.10;;;19.10;94.90;;;;;;5030220;28;20033;-72
2021/08/16 06:19:50;;;;;;;16.35;8.70;;;19.20;94.90;;;;;;5030314;28;20036;-72
2021/08/16 06:22:15;;;;;;;13.18;6.70;;;19.20;94.80;;;;;;5030465;28;20063;-72
2021/08/16 06:24:41;;;;;;;11.25;6.22;;;19.30;94.90;;;;;;5029051;28;20034;-73
2021/08/16 06:27:06;;;;;;;21.98;8.30;;;19.40;94.80;;;;;;5029072;28;20059;-72
2021/08/16 06:29:32;;;;;;;20.50;8.15;;;19.40;94.60;;;;;;5030314;28;20107;-71
2021/08/16 06:31:58;;;;;;;14.75;7.10;;;19.30;94.70;;;;;;5028902;28;20359;-71
2021/08/16 06:34:24;;;;;;;15.50;7.70;;;19.30;95.00;;;;;;5029862;28;20033;-71
2021/08/16 06:36:55;;;;;;;17.23;7.22;;;19.30;95.10;;;;;;5030447;28;20411;-70
2021/08/16 06:39:22;;;;;;;18.13;7.80;;;19.40;95.00;;;;;;5029174;28;20036;-75
2021/08/16 06:41:49;;;;;;;11.55;6.90;;;19.30;94.70;;;;;;5030140;28;20133;-74
2021/08/16 06:44:17;;;;;;;12.80;7.25;;;19.30;94.70;;;;;;5030503;28;20029;-72
2021/08/16 06:46:47;;;;;;;19.23;8.00;;;19.30;94.70;;;;;;5030235;28;20085;-73
2021/08/16 06:49:14;;;;;;;23.08;8.75;;;19.20;94.90;;;;;;5045974;28;20069;-74
2021/08/16 06:51:40;;;;;;;14.27;7.53;;;19.30;94.80;;;;;;5030122;28;20025;-73
2021/08/16 06:54:06;;;;;;;15.05;6.72;;;19.30;94.60;;;;;;5030166;28;20038;-70
2021/08/16 06:56:32;;;;;;;20.27;7.60;;;19.20;94.70;;;;;;5029855;28;20432;-71
2021/08/16 06:58:57;;;;;;;13.82;7.45;;;19.20;94.70;;;;;;5029941;28;20069;-69
2021/08/16 07:01:25;;;;;;;13.93;6.53;;;19.20;94.80;;;;;;5031540;28;20083;-70
2021/08/16 07:03:52;;;;;;;17.23;7.57;;;19.20;94.60;;;;;;5033698;28;20404;-74
2021/08/16 07:06:18;;;;;;;13.25;6.95;;;19.30;94.60;;;;;;5033659;28;20025;-73
2021/08/16 07:08:43;;;;;;;18.83;7.18;;;19.30;94.30;;;;;;5033898;28;20033;-72
2021/08/16 07:11:09;;;;;;;13.95;6.78;;;19.40;94.40;;;;;;5033704;28;20455;-72
2021/08/16 07:13:35;;;;;;;20.15;7.63;;;19.50;94.20;;;;;;5033689;28;20412;-72
2021/08/16 07:16:01;;;;;;;18.23;6.10;;;19.50;94.10;;;;;;5033800;28;20100;-71
2021/08/16 07:18:27;;;;;;;15.57;6.78;;;19.50;94.00;;;;;;5033411;28;20060;-75
2021/08/16 07:20:52;;;;;;;18.60;7.07;;;19.60;94.00;;;;;;5033461;28;20033;-72
2021/08/16 07:23:20;;;;;;;12.52;6.90;;;19.60;93.70;;;;;;5033195;28;20177;-73
2021/08/16 07:25:46;;;;;;;17.95;6.45;;;19.60;93.60;;;;;;5033249;28;20344;-72
2021/08/16 07:28:11;;;;;;;13.63;6.43;;;19.70;93.60;;;;;;5033522;28;20034;-72
2021/08/16 07:30:37;;;;;;;22.83;6.60;;;19.80;93.40;;;;;;5033101;28;20037;-72
2021/08/16 07:33:02;;;;;;;17.67;6.45;;;19.80;93.30;;;;;;5031983;28;20088;-73
2021/08/16 07:35:28;;;;;;;20.75;7.18;;;19.90;93.20;;;;;;5033328;28;20037;-73
2021/08/16 07:37:55;;;;;;;18.35;7.15;;;20.00;93.10;;;;;;5033040;28;20513;-72
2021/08/16 07:40:21;;;;;;;15.35;6.75;;;19.90;92.90;;;;;;5032198;28;20095;-71
2021/08/16 07:42:48;;;;;;;17.52;7.00;;;20.00;92.90;;;;;;5031885;28;20056;-69
2021/08/16 07:45:13;;;;;;;18.55;6.80;;;19.90;92.80;;;;;;5032960;28;20363;-70
2021/08/16 07:47:39;;;;;;;16.52;7.03;;;19.90;92.60;;;;;;5032669;28;20029;-70
2021/08/16 07:50:09;;;;;;;21.42;7.40;;;19.90;92.70;;;;;;5032989;28;20356;-72
2021/08/16 07:52:37;;;;;;;19.13;6.68;;;19.90;92.60;;;;;;5033024;28;20351;-73
2021/08/16 07:55:03;;;;;;;19.10;6.63;;;19.80;92.70;;;;;;5033202;28;20021;-72
2021/08/16 07:57:31;;;;;;;17.17;7.30;;;19.90;92.80;;;;;;5032881;28;20099;-73
2021/08/16 07:59:57;;;;;;;15.63;5.80;;;20.00;92.70;;;;;;5032730;28;20787;-72
2021/08/16 08:02:22;;;;;;;14.80;6.72;;;20.10;92.50;;;;;;5031419;28;20041;-73
2021/08/16 08:04:48;;;;;;;16.67;6.95;;;20.10;92.40;;;;;;5032517;28;20501;-72
2021/08/16 08:07:13;;;;;;;20.23;7.15;;;20.30;92.20;;;;;;5048409;28;20469;-70
2021/08/16 08:09:39;;;;;;;17.20;6.35;;;20.40;91.80;;;;;;5032440;28;20549;-69
2021/08/16 08:12:05;;;;;;;18.08;5.93;;;20.50;91.90;;;;;;5032003;28;20029;-72
2021/08/16 08:14:30;;;;;;;15.82;6.78;;;20.50;91.90;;;;;;5031723;28;20044;-73
2021/08/16 08:16:56;;;;;;;17.13;6.90;;;20.70;91.60;;;;;;5032420;28;20112;-79
2021/08/16 08:19:21;;;;;;;19.80;8.23;;;21.00;91.30;;;;;;5032927;28;20550;-72
2021/08/16 08:21:47;;;;;;;15.23;7.07;;;21.10;90.90;;;;;;5032277;28;20073;-73
2021/08/16 08:24:13;;;;;;;20.77;7.53;;;21.20;90.70;;;;;;5032400;28;20041;-72
2021/08/16 08:26:38;;;;;;;14.88;7.38;;;21.10;90.60;;;;;;5032288;28;20483;-71
2021/08/16 08:29:04;;;;;;;19.95;8.88;;;21.10;90.50;;;;;;5032075;28;20037;-71
2021/08/16 08:31:29;;;;;;;17.15;7.47;;;21.10;90.30;;;;;;5047419;28;20029;-71
2021/08/16 08:33:55;;;;;;;19.13;7.07;;;21.10;90.60;;;;;;5032503;28;20112;-72
2021/08/16 08:36:21;;;;;;;15.13;7.13;;;21.10;90.40;;;;;;5032161;28;20025;-72
2021/08/16 08:38:46;;;;;;;11.95;7.75;;;21.00;90.40;;;;;;5031697;28;20072;-71
2021/08/16 08:41:17;;;;;;;19.48;7.82;;;21.40;90.20;;;;;;5031753;28;20455;-72
2021/08/16 08:43:44;;;;;;;15.85;6.72;;;21.90;89.50;;;;;;5031875;28;20040;-72
2021/08/16 08:46:10;;;;;;;15.65;7.38;;;22.40;88.90;;;;;;5032117;28;20355;-72
2021/08/16 08:48:36;;;;;;;15.32;7.72;;;23.30;87.40;;;;;;5031811;28;20022;-72
2021/08/16 08:51:02;;;;;;;16.63;6.90;;;23.40;84.80;;;;;;5031631;28;20041;-70
2021/08/16 08:53:28;;;;;;;16.27;7.35;;;23.00;84.70;;;;;;5031619;28;20033;-72
2021/08/16 08:55:54;;;;;;;15.45;7.30;;;22.40;85.80;;;;;;5031974;28;20025;-74
2021/08/16 08:58:20;;;;;;;15.82;7.40;;;22.50;86.20;;;;;;5047327;28;20489;-72
2021/08/16 09:00:46;;;;;;;14.85;7.03;;;22.80;84.70;;;;;;5031637;28;20108;-80
2021/08/16 09:03:13;;;;;;;14.57;6.82;;;22.60;84.90;;;;;;5031438;28;20090;-81
2021/08/16 09:05:49;;;;;;;12.20;6.05;;;22.70;84.60;;;;;;5031437;28;20128;-69
2021/08/16 09:08:30;;;;;;;15.38;7.35;;;22.60;84.30;;;;;;5031292;28;20044;-72
2021/08/16 09:11:06;;;;;;;20.63;7.85;;;22.40;85.10;;;;;;5031131;28;20040;-69
2021/08/16 09:13:31;;;;;;;14.77;7.43;;;22.70;85.20;;;;;;5031064;28;20100;-69
2021/08/16 09:16:07;;;;;;;16.85;7.35;;;22.80;84.50;;;;;;5031622;28;20124;-72
2021/08/16 09:18:33;;;;;;;16.65;8.10;;;22.70;84.00;;;;;;5031140;28;20076;-72
2021/08/16 09:20:59;;;;;;;16.77;8.07;;;22.30;84.60;;;;;;5046532;28;20414;-72
2021/08/16 09:23:25;;;;;;;17.55;8.00;;;21.90;86.00;;;;;;5030819;28;20050;-70
2021/08/16 09:25:56;;;;;;;18.38;8.70;;;21.90;86.20;;;;;;5031043;28;20451;-71
2021/08/16 09:28:31;;;;;;;14.50;7.57;;;21.60;86.70;;;;;;5031353;28;20025;-71
2021/08/16 09:31:08;;;;;;;15.63;7.47;;;21.50;87.40;;;;;;5031081;28;20060;-71
2021/08/16 09:33:34;;;;;;;14.10;7.55;;;21.60;87.50;;;;;;5031379;28;20120;-70
2021/08/16 09:36:00;;;;;;;16.42;7.95;;;21.60;87.50;;;;;;5030852;28;20129;-71
2021/08/16 09:38:37;;;;;;;18.20;7.20;;;21.40;87.50;;;;;;5030887;28;20067;-72
2021/08/16 09:41:04;;;;;;;18.55;8.02;;;21.40;88.30;;;;;;5030747;28;20061;-71
2021/08/16 09:43:30;;;;;;;26.83;8.60;;;21.20;88.40;;;;;;5030194;28;20056;-71
2021/08/16 09:45:56;;;;;;;16.10;7.18;;;21.20;88.40;;;;;;5031166;28;20033;-70
2021/08/16 09:48:23;;;;;;;13.52;7.63;;;21.20;88.40;;;;;;5030614;28;20038;-69
2021/08/16 09:50:51;;;;;;;17.33;7.75;;;21.20;88.60;;;;;;5030694;28;20025;-68
2021/08/16 09:53:17;;;;;;;15.82;7.20;;;21.00;88.80;;;;;;5030898;28;20112;-69
2021/08/16 09:55:45;;;;;;;15.77;7.57;;;21.00;89.10;;;;;;5030513;28;20017;-72
2021/08/16 09:58:13;;;;;;;15.48;7.72;;;21.00;89.40;;;;;;5030903;28;20025;-68
2021/08/16 10:00:39;;;;;;;17.25;7.38;;;21.10;89.50;;;;;;5030592;28;20025;-72
2021/08/16 10:03:07;;;;;;;19.50;7.90;;;21.00;89.40;;;;;;5030702;28;20037;-73
2021/08/16 10:05:41;;;;;;;14.30;7.13;;;21.00;89.60;;;;;;5030588;28;20037;-71
2021/08/16 10:08:11;;;;;;;14.60;7.38;;;21.00;89.40;;;;;;5030462;28;20041;-70
2021/08/16 10:10:38;;;;;;;15.15;6.78;;;21.00;89.50;;;;;;5030292;28;20030;-70
2021/08/16 10:13:05;;;;;;;11.70;7.10;;;21.00;89.40;;;;;;5030863;28;20018;-70
2021/08/16 10:15:42;;;;;;;14.93;6.80;;;20.90;89.50;;;;;;5030710;28;20262;-71
2021/08/16 10:18:15;;;;;;;10.93;6.30;;;20.90;90.10;;;;;;5029160;28;20034;-72
2021/08/16 10:20:44;;;;;;;14.25;6.78;;;20.90;89.90;;;;;;5029304;28;20368;-71
2021/08/16 10:23:21;;;;;;;22.58;7.50;;;20.80;90.00;;;;;;5028931;28;20446;-71
2021/08/16 10:25:50;;;;;;;15.25;7.03;;;20.70;90.00;;;;;;5030508;28;20033;-70
2021/08/16 10:28:23;;;;;;;16.73;7.03;;;20.60;90.10;;;;;;5030646;28;20059;-70
2021/08/16 10:30:49;;;;;;;14.60;6.55;;;20.60;90.10;;;;;;5030376;28;20061;-71
2021/08/16 10:33:15;;;;;;;17.13;6.03;;;20.60;90.10;;;;;;5030406;28;20064;-71
2021/08/16 10:35:40;;;;;;;20.58;6.60;;;20.60;90.20;;;;;;5030567;28;20439;-72
2021/08/16 10:38:11;;;;;;;13.15;5.97;;;20.60;90.10;;;;;;5034263;28;20495;-71
2021/08/16 10:40:56;;;;;;;13.32;5.25;;;20.60;90.10;;;;;;5035080;28;20108;-70
2021/08/16 10:43:31;;;;;;;12.50;5.38;;;20.60;90.20;;;;;;5034379;28;20498;-70
2021/08/16 10:45:57;;;;;;;24.23;6.60;;;20.60;90.60;;;;;;5034250;28;20120;-71
2021/08/16 10:48:32;;;;;;;10.38;6.18;;;20.50;91.40;;;;;;5033558;28;20022;-71
2021/08/16 10:51:07;;;;;;;15.48;6.85;;;20.50;92.60;;;;;;5033825;28;20486;-71
2021/08/16 10:53:45;;;;;;;13.82;6.50;;;20.30;93.10;;;;;;5033671;28;20041;-76
2021/08/16 10:56:16;;;;;;;14.50;6.53;;;20.20;93.20;;;;;;5033951;28;20043;-69
2021/08/16 10:58:42;;;;;;;13.02;7.13;;;19.90;94.50;;;;;;5033949;28;20040;-69
2021/08/16 11:01:08;;;;;;;14.30;6.38;;;19.80;94.60;;;;;;5033998;28;20033;-68
2021/08/16 11:03:34;;;;;;;14.10;6.53;;;19.70;95.00;;;;;;5033889;28;20057;-69
2021/08/16 11:06:05;;;;;;;17.73;6.43;;;19.80;95.10;;;;;;5032677;28;20025;-70
2021/08/16 11:08:31;;;;;;;12.75;7.30;;;19.70;95.60;;;;;;5033635;28;20034;-68
2021/08/16 11:11:05;;;;;;;13.65;6.60;;;19.70;95.50;;;;;;5033522;28;20125;-69
2021/08/16 11:13:32;;;;;;;18.15;7.32;;;19.90;95.70;;;;;;5033426;28;20470;-69
2021/08/16 11:16:05;;;;;;;15.38;6.93;;;19.80;95.70;;;;;;5033833;28;20158;-69
2021/08/16 11:18:30;;;;;;;16.25;7.85;;;19.80;95.80;;;;;;5033740;28;20038;-70
2021/08/16 11:21:01;;;;;;;15.43;7.15;;;19.80;96.30;;;;;;5033468;28;20036;-72
2021/08/16 11:23:27;;;;;;;13.27;5.63;;;19.70;96.50;;;;;;5033125;28;20053;-71
2021/08/16 11:25:55;;;;;;;7.97;3.50;;;19.60;96.60;;;;;;5033268;28;20034;-71
2021/08/16 11:28:23;;;;;;;6.45;2.83;;;19.40;96.10;;;;;;5033496;28;20033;-68
2021/08/16 11:30:49;;;;;;;;;;;19.10;96.40;;;;;;5033634;28;20048;-70
2021/08/16 11:33:23;;;;;;;6.18;3.28;;;18.80;97.40;;;;;;5033119;28;19915;-72
2021/08/16 11:35:49;;;;;;;7.78;3.10;;;18.60;97.70;;;;;;5033378;28;20025;-71
2021/08/16 11:38:15;;;;;;;6.07;2.60;;;18.50;97.20;;;;;;5032126;28;20030;-74
2021/08/16 11:40:41;;;;;;;6.70;2.88;;;18.60;97.00;;;;;;5031790;28;20095;-72
2021/08/16 11:43:06;;;;;;;8.18;2.85;;;18.50;97.20;;;;;;5033208;28;20041;-70
2021/08/16 11:45:37;;;;;;;4.22;1.95;;;18.40;97.20;;;;;;5032397;28;20037;-71
2021/08/16 11:48:03;;;;;;;5.03;2.20;;;18.50;96.60;;;;;;5032892;28;20047;-72
2021/08/16 11:50:29;;;;;;;3.67;2.17;;;18.50;96.70;;;;;;5033227;28;20025;-90
2021/08/16 11:52:54;;;;;;;5.07;2.38;;;18.60;96.60;;;;;;5032949;28;20030;-74
2021/08/16 11:55:28;;;;;;;2.95;1.85;;;18.50;96.70;;;;;;5033359;28;20022;-74
2021/08/16 11:57:56;;;;;;;3.83;2.03;;;18.50;96.60;;;;;;5032980;28;20491;-75
2021/08/16 12:00:24;;;;;;;3.47;2.38;;;18.30;96.60;;;;;;5032599;28;20061;-74
2021/08/16 12:02:50;;;;;;;3.15;1.83;;;18.40;96.70;;;;;;5032304;28;20713;-73
2021/08/16 12:05:16;;;;;;;5.72;1.83;;;18.50;96.70;;;;;;5033830;28;20040;-74
2021/08/16 12:07:45;;;;;;;2.08;1.80;;;18.60;96.40;;;;;;5032423;28;20040;-72
2021/08/16 12:10:16;;;;;;;5.25;2.00;;;18.60;96.80;;;;;;5032749;28;20048;-74
2021/08/16 12:12:42;;;;;;;5.47;2.40;;;18.60;96.70;;;;;;5032624;28;20363;-74
2021/08/16 12:15:14;;;;;;;6.43;1.90;;;18.70;96.70;;;;;;5031770;28;20033;-72
2021/08/16 12:17:40;;;;;;;2.45;1.45;;;18.60;96.60;;;;;;5032338;28;20053;-73
2021/08/16 12:20:08;;;;;;;2.17;1.42;;;18.60;96.30;;;;;;5031390;28;20091;-72
2021/08/16 12:22:57;;;;;;;2.92;1.63;;;18.60;96.60;;;;;;5032484;28;20076;-74
2021/08/16 12:25:24;;;;;;;4.78;2.25;;;18.40;96.30;;;;;;5032866;28;20356;-72
2021/08/16 12:27:53;;;;;;;3.85;2.20;;;18.30;97.20;;;;;;5029907;28;20129;-75
2021/08/16 12:30:19;;;;;;;3.58;1.98;;;18.40;96.80;;;;;;5032854;28;20502;-75
2021/08/16 12:32:45;;;;;;;4.32;1.95;;;18.50;97.30;;;;;;5032514;28;20030;-76
2021/08/16 12:35:18;;;;;;;3.95;1.90;;;18.40;97.30;;;;;;5032553;28;20022;-75
2021/08/16 12:37:44;;;;;;;4.65;2.13;;;18.40;96.90;;;;;;5032185;28;20025;-75